Terminal Aerodrome Forecast
Issued by NWS Sterling, VA

Current Version | Previous Version | Graphics & Text | Print | Product List | Glossary On
Versions: 1 2 3 4 5 6 7 8 9 10 11 12 13 14 15 16 17 18 19 20 21
000
FTUS41 KLWX 202100 AAA
TAFIAD
TAF AMD
KIAD 202104Z 2021/2124 27007KT P6SM FEW080
     FM202200 29012G18KT P6SM FEW080
     FM210000 30010KT P6SM SKC
     FM211400 31011G19KT P6SM FEW200
     FM212200 31007KT P6SM SKC=

USA.gov is the U.S. government's official web portal to all federal, state and local government web resources and services.